Parkin, Arkansas
Current Conditions -  °F | °C
As of 2:53 AM on Thursday 18 Dec 2014 (Local Time) from KAWM Reporting Station
Light Rain Light Rain  
Wind Chill: 32°   Ceiling: 7000
Heat Index: 37°   Visibility: 7mi
Dew Point: 36°   Wind: 6mph
Humidity: 96%   Direction: 120°ESE
Pressure: 30.24"   Gusts: NA
Location:  35.26°N, 90.57°W
Report Text: KAWM 180853Z AUTO 12005KT 7SM -RA OVC070 03/02 A3024 RMK AO2 SLP243 P0003 60008 T00280022 58015
Loading
Personal Weather Stations






























Interactive Weather Map New forecast layout! Learn more

10-Day Weather Forecast

Advertisements
Track Severe Weather on mobile